createdAt,value
2018-12-01T00:00:34.991Z,31.83
2018-12-01T00:03:04.257Z,33.20
2018-12-01T00:05:33.095Z,29.70
2018-12-01T00:08:02.509Z,29.40
2018-12-01T00:10:31.803Z,29.87
2018-12-01T00:13:00.631Z,35.90
2018-12-01T00:15:30.792Z,37.17
2018-12-01T00:17:59.907Z,34.47
2018-12-01T00:20:30.208Z,32.70
2018-12-01T00:22:59.412Z,31.00
2018-12-01T00:25:28.705Z,30.87
2018-12-01T00:27:57.961Z,32.37
2018-12-01T00:30:27.316Z,30.03
2018-12-01T00:32:56.941Z,29.17
2018-12-01T00:35:26.306Z,28.40
2018-12-01T00:37:55.224Z,28.17
2018-12-01T00:40:24.442Z,30.07
2018-12-01T00:42:53.445Z,28.53
2018-12-01T00:45:23.472Z,29.20
2018-12-01T00:47:53.471Z,27.90
2018-12-01T00:50:23.506Z,28.93
2018-12-01T00:52:53.315Z,30.20
2018-12-01T00:55:22.768Z,29.77
2018-12-01T00:57:52.023Z,30.40
2018-12-01T01:00:25.388Z,30.07
2018-12-01T01:02:57.017Z,32.23
2018-12-01T01:05:27.044Z,29.73
2018-12-01T01:07:56.874Z,27.97
2018-12-01T01:10:31.012Z,29.97
2018-12-01T01:13:00.267Z,29.80
2018-12-01T01:15:29.504Z,30.03
2018-12-01T01:17:58.758Z,31.00
2018-12-01T01:20:28.108Z,28.47
2018-12-01T01:22:57.455Z,32.90
2018-12-01T01:25:26.287Z,32.47
2018-12-01T01:27:55.627Z,33.27
2018-12-01T01:30:25.315Z,29.97
2018-12-01T01:33:04.323Z,32.30
2018-12-01T01:35:33.331Z,32.90
2018-12-01T01:38:02.572Z,35.40
2018-12-01T01:40:31.476Z,29.63
2018-12-01T01:43:00.654Z,34.03
2018-12-01T01:45:29.813Z,35.27
2018-12-01T01:47:58.942Z,33.00
2018-12-01T01:50:28.339Z,28.63
2018-12-01T01:52:57.588Z,28.57
2018-12-01T01:55:26.962Z,27.27
2018-12-01T01:57:56.187Z,25.90
2018-12-01T02:00:25.435Z,26.70
2018-12-01T02:02:54.257Z,27.00
2018-12-01T02:05:24.848Z,27.20
2018-12-01T02:07:54.095Z,26.33
2018-12-01T02:32:24.531Z,26.53
2018-12-01T02:34:53.749Z,26.33
2018-12-01T02:37:23.000Z,26.40
2018-12-01T02:39:51.907Z,27.20
2018-12-01T02:42:21.063Z,27.93
2018-12-01T02:45:01.900Z,27.43
2018-12-01T02:47:31.304Z,27.97
2018-12-01T02:50:00.499Z,27.57
2018-12-01T02:52:29.671Z,28.40
2018-12-01T02:54:58.680Z,29.50
2018-12-01T02:57:27.846Z,31.47
2018-12-01T02:59:56.873Z,30.53
2018-12-01T03:02:26.067Z,31.77
2018-12-01T03:04:55.421Z,32.90
2018-12-01T03:07:24.622Z,34.67
2018-12-01T03:09:53.961Z,34.03
2018-12-01T03:12:23.175Z,36.70
2018-12-01T03:14:52.456Z,36.30
2018-12-01T03:17:21.402Z,37.07
2018-12-01T03:19:50.647Z,38.43
2018-12-01T03:22:19.831Z,35.47
2018-12-01T03:24:48.967Z,36.33
2018-12-01T03:27:18.468Z,36.67
2018-12-01T03:29:47.708Z,39.17
2018-12-01T03:32:16.764Z,37.13
2018-12-01T03:34:46.136Z,38.70
2018-12-01T03:37:15.261Z,36.73
2018-12-01T03:39:44.212Z,37.70
2018-12-01T03:42:13.626Z,38.17
2018-12-01T03:44:42.730Z,33.87
2018-12-01T03:47:12.007Z,39.20
2018-12-01T03:49:41.435Z,36.13
2018-12-01T03:52:10.896Z,37.77
2018-12-01T03:54:39.805Z,36.57
2018-12-01T03:57:08.991Z,36.07
2018-12-01T03:59:38.327Z,34.83
2018-12-01T04:02:07.615Z,39.03
2018-12-01T04:04:36.629Z,36.67
2018-12-01T04:07:05.963Z,39.27
2018-12-01T04:09:34.920Z,35.50
2018-12-01T04:12:04.155Z,40.73
2018-12-01T04:14:33.078Z,35.03
2018-12-01T04:17:02.474Z,32.70
2018-12-01T04:19:31.774Z,36.13
2018-12-01T04:22:01.199Z,38.17
2018-12-01T04:24:30.264Z,37.60
2018-12-01T04:26:59.403Z,37.00
2018-12-01T04:29:28.692Z,36.30
2018-12-01T04:31:58.051Z,35.97
2018-12-01T04:34:27.171Z,35.03
2018-12-01T04:36:56.378Z,35.47
2018-12-01T04:39:25.399Z,34.30
2018-12-01T04:41:54.489Z,36.27
2018-12-01T04:44:23.819Z,36.80
2018-12-01T04:46:52.978Z,35.37
2018-12-01T04:49:22.364Z,38.13
2018-12-01T04:51:51.227Z,35.37
2018-12-01T04:54:20.399Z,37.57
2018-12-01T04:56:49.687Z,38.83
2018-12-01T04:59:18.866Z,39.07
2018-12-01T05:01:48.147Z,36.87
2018-12-01T05:04:17.343Z,37.80
2018-12-01T05:06:46.487Z,40.13
2018-12-01T05:09:15.835Z,38.80
2018-12-01T05:11:45.196Z,37.70
2018-12-01T05:14:14.147Z,38.17
2018-12-01T05:16:43.018Z,44.60
2018-12-01T05:19:12.104Z,47.87
2018-12-01T05:21:41.375Z,44.13
2018-12-01T05:24:10.729Z,42.73
2018-12-01T05:26:39.507Z,43.10
2018-12-01T05:29:08.691Z,43.27
2018-12-01T05:31:37.680Z,45.97
2018-12-01T05:34:07.079Z,64.57
2018-12-01T05:36:36.485Z,87.83
2018-12-01T05:39:08.616Z,76.00
2018-12-01T05:41:37.807Z,210.57
2018-12-01T05:44:06.799Z,84.03
2018-12-01T05:46:36.846Z,45.77
2018-12-01T05:49:05.552Z,50.60
2018-12-01T05:51:34.662Z,57.37
2018-12-01T05:54:03.591Z,51.83
2018-12-01T05:56:32.814Z,50.57
2018-12-01T05:59:01.983Z,40.40
2018-12-01T06:01:31.353Z,41.97
2018-12-01T06:04:00.531Z,45.33
2018-12-01T06:06:29.779Z,49.50
2018-12-01T06:08:58.924Z,43.17
2018-12-01T06:11:28.212Z,37.47
2018-12-01T06:13:57.080Z,39.23
2018-12-01T06:16:26.404Z,50.17
2018-12-01T06:18:55.366Z,43.33
2018-12-01T06:21:24.513Z,43.37
2018-12-01T06:23:53.698Z,43.93
2018-12-01T06:26:22.659Z,54.00
2018-12-01T06:28:51.719Z,38.77
2018-12-01T06:31:20.995Z,40.00
2018-12-01T06:33:50.178Z,36.50
2018-12-01T06:36:19.465Z,38.17
2018-12-01T06:38:48.339Z,39.57
2018-12-01T06:41:17.510Z,42.00
2018-12-01T06:43:46.338Z,44.27
2018-12-01T06:46:15.635Z,53.07
2018-12-01T06:48:44.618Z,50.90
2018-12-01T06:51:13.499Z,53.73
2018-12-01T06:53:42.670Z,49.67
2018-12-01T06:56:11.480Z,45.40
2018-12-01T06:58:40.828Z,37.30
2018-12-01T07:01:09.821Z,40.83
2018-12-01T07:03:38.816Z,46.37
2018-12-01T07:06:07.840Z,42.23
2018-12-01T07:08:37.048Z,50.27
2018-12-01T07:11:06.197Z,39.80
2018-12-01T07:13:35.312Z,40.37
2018-12-01T07:16:04.494Z,42.43
2018-12-01T07:18:44.637Z,86.23
2018-12-01T07:21:13.523Z,89.23
2018-12-01T07:23:42.867Z,118.93
2018-12-01T07:26:11.767Z,75.87
2018-12-01T07:28:41.071Z,107.47
2018-12-01T07:31:10.072Z,86.57
2018-12-01T07:33:39.235Z,172.87
2018-12-01T07:36:08.461Z,98.00
2018-12-01T07:38:37.599Z,63.67
2018-12-01T07:41:07.189Z,101.13
2018-12-01T07:43:36.496Z,79.10
2018-12-01T07:46:05.687Z,61.17
2018-12-01T07:48:34.707Z,56.07
2018-12-01T07:51:03.950Z,58.77
2018-12-01T07:53:33.135Z,54.27
2018-12-01T07:56:02.423Z,49.40
2018-12-01T07:58:31.493Z,48.73
2018-12-01T08:01:00.763Z,46.17
2018-12-01T08:03:29.786Z,48.60
2018-12-01T08:05:58.947Z,42.93
2018-12-01T08:08:28.078Z,41.23
2018-12-01T08:10:57.347Z,43.63
2018-12-01T08:13:26.490Z,45.60
2018-12-01T08:15:55.738Z,44.33
2018-12-01T08:18:24.903Z,43.50
2018-12-01T08:20:53.960Z,46.57
2018-12-01T08:23:22.947Z,102.20
2018-12-01T08:25:52.235Z,72.77
2018-12-01T08:28:23.444Z,187.30
2018-12-01T08:30:52.507Z,41.03
2018-12-01T08:33:21.949Z,36.03
2018-12-01T08:35:51.083Z,31.23
2018-12-01T08:38:20.008Z,38.37
2018-12-01T08:40:49.295Z,37.90
2018-12-01T08:43:18.302Z,33.53
2018-12-01T08:45:47.561Z,38.87
2018-12-01T08:48:16.595Z,36.30
2018-12-01T08:50:46.345Z,113.13
2018-12-01T08:53:14.990Z,69.97
2018-12-01T08:55:44.255Z,59.83
2018-12-01T08:58:13.465Z,36.53
2018-12-01T09:00:43.455Z,33.13
2018-12-01T09:03:17.473Z,51.13
2018-12-01T09:05:46.685Z,44.17
2018-12-01T09:08:16.064Z,39.13
2018-12-01T09:10:45.215Z,33.83
2018-12-01T09:13:14.559Z,38.23
2018-12-01T09:15:43.908Z,102.30
2018-12-01T09:18:12.935Z,40.40
2018-12-01T09:20:42.183Z,45.73
2018-12-01T09:23:11.574Z,40.13
2018-12-01T09:25:40.599Z,64.50
2018-12-01T09:28:10.400Z,43.30
2018-12-01T09:30:41.206Z,40.23
2018-12-01T09:33:10.082Z,47.50
2018-12-01T09:35:39.311Z,47.00
2018-12-01T09:38:08.356Z,39.90
2018-12-01T09:40:37.381Z,36.73
2018-12-01T09:43:06.791Z,34.90
2018-12-01T09:45:36.021Z,33.50
2018-12-01T09:48:05.008Z,29.70
2018-12-01T09:50:34.168Z,32.13
2018-12-01T09:53:03.004Z,30.63
2018-12-01T09:55:32.391Z,34.23
2018-12-01T09:58:01.759Z,30.03
2018-12-01T10:00:32.003Z,29.47
2018-12-01T10:03:02.255Z,28.33
2018-12-01T10:05:31.742Z,28.23
2018-12-01T10:08:01.020Z,27.00
2018-12-01T10:10:30.353Z,28.53
2018-12-01T10:12:59.730Z,27.60
2018-12-01T10:15:30.224Z,29.17
2018-12-01T10:17:59.653Z,29.63
2018-12-01T10:20:29.824Z,35.10
2018-12-01T10:22:59.428Z,30.13
2018-12-01T10:25:28.342Z,29.63
2018-12-01T10:27:57.467Z,29.30
2018-12-01T10:30:26.810Z,30.87
2018-12-01T10:32:56.135Z,28.90
2018-12-01T10:35:26.075Z,30.30
2018-12-01T10:38:07.745Z,32.93
2018-12-01T10:40:36.803Z,28.57
2018-12-01T10:43:06.504Z,28.13
2018-12-01T10:45:35.539Z,28.27
2018-12-01T10:48:05.070Z,29.50
2018-12-01T10:50:34.304Z,29.60
2018-12-01T10:53:03.299Z,31.57
2018-12-01T10:55:34.148Z,31.23
2018-12-01T10:58:05.237Z,32.57
2018-12-01T11:00:39.442Z,32.67
2018-12-01T11:03:13.953Z,38.37
2018-12-01T11:05:42.988Z,48.63
2018-12-01T11:08:13.714Z,31.60
2018-12-01T11:10:43.067Z,28.43
2018-12-01T11:13:12.032Z,30.30
2018-12-01T11:15:41.308Z,37.47
2018-12-01T11:18:10.391Z,37.50
2018-12-01T11:20:39.616Z,38.20
2018-12-01T11:23:08.824Z,39.93
2018-12-01T11:25:37.969Z,37.40
2018-12-01T11:28:07.343Z,32.87
2018-12-01T11:30:37.830Z,32.90
2018-12-01T11:33:07.139Z,29.70
2018-12-01T11:35:36.335Z,27.80
2018-12-01T11:38:05.606Z,28.87
2018-12-01T11:40:34.967Z,30.37
2018-12-01T11:43:04.116Z,33.30
2018-12-01T11:45:33.671Z,35.33
2018-12-01T11:48:02.826Z,37.87
2018-12-01T11:50:32.052Z,36.87
2018-12-01T11:53:01.316Z,30.47
2018-12-01T11:55:30.307Z,45.43
2018-12-01T11:57:59.571Z,46.70
2018-12-01T12:00:28.884Z,44.17
2018-12-01T12:02:58.028Z,41.80
2018-12-01T12:05:27.002Z,41.23
2018-12-01T12:08:06.796Z,34.60
2018-12-01T12:10:35.925Z,47.63
2018-12-01T12:13:05.017Z,37.23
2018-12-01T12:15:34.222Z,34.40
2018-12-01T12:18:03.999Z,35.83
2018-12-01T12:20:33.199Z,35.10
2018-12-01T12:23:02.126Z,34.87
2018-12-01T12:25:31.304Z,40.23
2018-12-01T12:28:00.553Z,39.27
2018-12-01T12:30:29.678Z,43.20
2018-12-01T12:32:58.861Z,51.80
2018-12-01T12:35:28.159Z,48.03
2018-12-01T12:37:57.095Z,38.17
2018-12-01T12:40:27.138Z,39.53
2018-12-01T12:43:00.372Z,37.30
2018-12-01T12:45:29.615Z,38.80
2018-12-01T12:47:59.064Z,39.10
2018-12-01T12:50:28.307Z,43.77
2018-12-01T12:52:57.817Z,41.17
2018-12-01T12:55:28.383Z,38.33
2018-12-01T12:57:57.321Z,35.27
2018-12-01T13:00:27.111Z,35.47
2018-12-01T13:03:00.092Z,38.33
2018-12-01T13:05:33.459Z,35.63
2018-12-01T13:08:02.681Z,50.50
2018-12-01T13:10:32.219Z,44.97
2018-12-01T13:13:01.300Z,39.53
2018-12-01T13:15:30.347Z,37.80
2018-12-01T13:17:59.646Z,40.00
2018-12-01T13:20:28.796Z,41.60
2018-12-01T13:23:04.619Z,39.93
2018-12-01T13:25:33.454Z,38.87
2018-12-01T13:28:09.752Z,41.03
2018-12-01T13:30:46.113Z,45.73
2018-12-01T13:33:15.133Z,46.70
2018-12-01T13:35:44.356Z,49.60
2018-12-01T13:38:13.289Z,49.17
2018-12-01T13:40:42.539Z,46.27
2018-12-01T13:43:11.800Z,41.57
2018-12-01T13:45:41.071Z,44.63
2018-12-01T13:48:10.407Z,53.07
2018-12-01T13:50:39.639Z,55.17
2018-12-01T13:53:11.727Z,52.17
2018-12-01T13:55:40.894Z,62.97
2018-12-01T13:58:15.147Z,63.07
2018-12-01T14:00:44.432Z,53.87
2018-12-01T14:03:13.767Z,55.43
2018-12-01T14:05:43.260Z,64.07
2018-12-01T14:08:12.142Z,52.43
2018-12-01T14:10:43.584Z,95.50
2018-12-01T14:13:13.610Z,70.80
2018-12-01T14:15:42.851Z,59.13
2018-12-01T14:18:12.396Z,65.70
2018-12-01T14:20:41.632Z,53.87
2018-12-01T14:23:10.729Z,50.97
2018-12-01T14:25:40.036Z,51.00
2018-12-01T14:28:10.455Z,48.90
2018-12-01T14:30:39.755Z,54.03
2018-12-01T14:33:09.860Z,78.67
2018-12-01T14:35:39.301Z,123.80
2018-12-01T14:38:13.511Z,89.90
2018-12-01T14:40:43.776Z,93.67
2018-12-01T14:43:12.995Z,84.67
2018-12-01T14:45:42.942Z,82.07
2018-12-01T14:48:12.163Z,70.57
2018-12-01T14:50:41.559Z,73.07
2018-12-01T14:53:12.057Z,109.93
2018-12-01T14:55:40.899Z,126.77
2018-12-01T14:58:10.258Z,83.00
2018-12-01T15:00:39.567Z,83.20
2018-12-01T15:03:09.585Z,82.27
2018-12-01T15:05:39.272Z,125.67
2018-12-01T15:08:08.798Z,148.40
2018-12-01T15:10:38.123Z,142.77
2018-12-01T15:13:07.141Z,151.83
2018-12-01T15:15:36.171Z,126.07
2018-12-01T15:18:05.361Z,134.53
2018-12-01T15:20:35.072Z,108.90
2018-12-01T15:23:04.243Z,97.90
2018-12-01T15:25:33.407Z,97.40
2018-12-01T15:28:02.666Z,106.97
2018-12-01T15:30:31.780Z,106.00
2018-12-01T15:33:06.099Z,87.17
2018-12-01T15:35:35.358Z,106.27
2018-12-01T15:38:04.612Z,99.23
2018-12-01T15:40:33.865Z,81.87
2018-12-01T15:43:03.568Z,71.23
2018-12-01T15:45:32.936Z,66.23
2018-12-01T15:48:02.130Z,78.27
2018-12-01T15:50:31.402Z,81.40
2018-12-01T15:53:01.343Z,62.37
2018-12-01T15:55:30.690Z,62.40
2018-12-01T15:57:59.935Z,51.63
2018-12-01T16:00:29.579Z,51.47
2018-12-01T16:02:58.744Z,62.00
2018-12-01T16:05:27.632Z,85.23
2018-12-01T16:07:57.827Z,77.03
2018-12-01T16:10:27.317Z,125.40
2018-12-01T16:13:00.292Z,104.53
2018-12-01T16:15:34.583Z,100.20
2018-12-01T16:18:04.143Z,97.20
2018-12-01T16:20:33.450Z,79.60
2018-12-01T16:23:02.724Z,88.80
2018-12-01T16:25:32.087Z,93.67
2018-12-01T16:28:01.328Z,101.37
2018-12-01T16:30:34.584Z,106.00
2018-12-01T16:33:05.814Z,61.37
2018-12-01T16:35:34.992Z,116.30
2018-12-01T16:38:04.554Z,99.70
2018-12-01T16:40:36.414Z,81.80
2018-12-01T16:43:08.015Z,61.67
2018-12-01T16:45:37.307Z,97.50
2018-12-01T16:48:06.644Z,91.07
2018-12-01T16:50:35.919Z,108.27
2018-12-01T16:53:05.456Z,64.57
2018-12-01T16:55:34.320Z,61.20
2018-12-01T16:58:03.383Z,81.03
2018-12-01T17:00:32.667Z,73.53
2018-12-01T17:03:01.918Z,60.83
2018-12-01T17:05:33.711Z,61.03
2018-12-01T17:08:02.799Z,53.67
2018-12-01T17:10:31.726Z,61.77
2018-12-01T17:13:01.036Z,64.63
2018-12-01T17:15:31.107Z,97.57
2018-12-01T17:18:00.500Z,110.80
2018-12-01T17:20:29.619Z,74.60
2018-12-01T17:22:59.426Z,68.33
2018-12-01T17:25:28.652Z,65.70
2018-12-01T17:27:58.867Z,66.87
2018-12-01T17:30:29.863Z,60.27
2018-12-01T17:33:00.020Z,65.83
2018-12-01T17:35:31.218Z,65.03
2018-12-01T17:38:04.354Z,67.77
2018-12-01T17:40:46.711Z,64.97
2018-12-01T17:43:18.173Z,58.10
2018-12-01T17:45:47.493Z,57.03
2018-12-01T17:48:16.361Z,50.87
2018-12-01T17:50:45.515Z,48.93
2018-12-01T17:53:15.691Z,58.37
2018-12-01T17:55:44.793Z,65.30
2018-12-01T17:58:13.967Z,59.80
2018-12-01T18:00:42.959Z,75.37
2018-12-01T18:03:12.123Z,86.77
2018-12-01T18:05:43.098Z,92.83
2018-12-01T18:08:13.675Z,81.20
2018-12-01T18:10:43.156Z,106.93
2018-12-01T18:13:12.494Z,103.13
2018-12-01T18:15:41.832Z,100.23
2018-12-01T18:18:10.841Z,75.57
2018-12-01T18:20:40.231Z,126.53
2018-12-01T18:23:10.987Z,89.43
2018-12-01T18:25:47.492Z,79.17
2018-12-01T18:28:19.600Z,89.80
2018-12-01T18:30:48.893Z,56.50
2018-12-01T18:33:24.000Z,58.50
2018-12-01T18:35:53.239Z,64.63
2018-12-01T18:38:22.490Z,64.13
2018-12-01T18:40:51.908Z,66.80
2018-12-01T18:43:21.174Z,59.63
2018-12-01T18:45:52.081Z,64.93
2018-12-01T18:48:21.267Z,77.40
2018-12-01T18:50:50.204Z,77.30
2018-12-01T18:53:19.569Z,80.50
2018-12-01T18:55:52.535Z,62.80
2018-12-01T18:58:22.126Z,60.23
2018-12-01T19:00:53.318Z,67.40
2018-12-01T19:03:23.964Z,61.93
2018-12-01T19:05:53.030Z,55.00
2018-12-01T19:08:21.936Z,55.90
2018-12-01T19:10:51.462Z,58.13
2018-12-01T19:13:20.810Z,84.47
2018-12-01T19:15:50.052Z,71.83
2018-12-01T19:18:19.307Z,72.37
2018-12-01T19:20:49.187Z,67.07
2018-12-01T19:23:18.915Z,67.23
2018-12-01T19:25:49.356Z,60.07
2018-12-01T19:28:18.495Z,55.07
2018-12-01T19:30:47.405Z,74.17
2018-12-01T19:33:18.723Z,86.67
2018-12-01T19:35:48.758Z,74.67
2018-12-01T19:38:26.456Z,57.00
2018-12-01T19:40:56.206Z,56.17
2018-12-01T19:43:25.495Z,63.53
2018-12-01T19:45:54.750Z,58.20
2018-12-01T19:48:24.103Z,52.90
2018-12-01T19:50:53.128Z,41.23
2018-12-01T19:53:22.387Z,45.80
2018-12-01T19:55:53.253Z,39.53
2018-12-01T19:58:27.783Z,35.97
2018-12-01T20:00:57.636Z,39.63
2018-12-01T20:03:29.427Z,44.80
2018-12-01T20:05:58.727Z,45.40
2018-12-01T20:08:28.186Z,45.00
2018-12-01T20:11:00.076Z,47.70
2018-12-01T20:13:36.663Z,41.23
2018-12-01T20:16:17.186Z,42.33
2018-12-01T20:18:47.238Z,42.67
2018-12-01T20:21:16.204Z,40.47
2018-12-01T20:23:45.727Z,37.73
2018-12-01T20:26:16.129Z,41.40
2018-12-01T20:28:45.688Z,44.67
2018-12-01T20:31:15.210Z,37.47
2018-12-01T20:33:44.577Z,36.70
2018-12-01T20:36:23.546Z,35.97
2018-12-01T20:39:13.090Z,38.50
2018-12-01T20:41:42.468Z,45.43
2018-12-01T20:44:12.067Z,52.37
2018-12-01T20:46:41.712Z,36.73
2018-12-01T20:49:10.950Z,43.87
2018-12-01T20:51:40.105Z,52.57
2018-12-01T20:54:19.210Z,44.70
2018-12-01T20:56:48.967Z,44.00
2018-12-01T20:59:18.272Z,36.50
2018-12-01T21:01:47.568Z,35.50
2018-12-01T21:04:16.913Z,31.90
2018-12-01T21:06:45.847Z,30.43
2018-12-01T21:09:14.996Z,33.13
2018-12-01T21:11:44.119Z,36.47
2018-12-01T21:14:13.365Z,39.07
2018-12-01T21:16:42.466Z,39.00
2018-12-01T21:19:11.800Z,41.60
2018-12-01T21:21:40.979Z,37.70
2018-12-01T21:24:10.087Z,37.17
2018-12-01T21:26:39.289Z,42.90
2018-12-01T21:29:09.205Z,46.67
2018-12-01T21:31:38.553Z,47.43
2018-12-01T21:34:08.048Z,51.67
2018-12-01T21:36:37.251Z,44.97
2018-12-01T21:39:08.448Z,40.83
2018-12-01T21:41:37.827Z,38.30
2018-12-01T21:44:06.961Z,36.83
2018-12-01T21:46:36.290Z,38.37
2018-12-01T21:49:06.511Z,43.83
2018-12-01T21:51:35.483Z,43.23
2018-12-01T21:54:04.528Z,40.13
2018-12-01T21:56:33.660Z,39.93
2018-12-01T21:59:03.752Z,42.63
2018-12-01T22:01:32.838Z,47.57
2018-12-01T22:04:02.148Z,47.17
2018-12-01T22:06:31.356Z,44.37
2018-12-01T22:09:00.398Z,46.73
2018-12-01T22:11:29.748Z,48.83
2018-12-01T22:13:58.715Z,48.17
2018-12-01T22:16:27.946Z,46.30
2018-12-01T22:18:57.267Z,48.93
2018-12-01T22:21:26.491Z,47.57
2018-12-01T22:23:55.885Z,52.87
2018-12-01T22:26:25.223Z,50.67
2018-12-01T22:28:54.335Z,47.57
2018-12-01T22:31:23.624Z,48.30
2018-12-01T22:33:52.722Z,45.97
2018-12-01T22:36:21.920Z,41.73
2018-12-01T22:38:51.095Z,44.80
2018-12-01T22:41:20.256Z,45.33
2018-12-01T22:43:49.633Z,43.33
2018-12-01T22:46:18.903Z,44.83
2018-12-01T22:48:48.162Z,40.70
2018-12-01T22:51:17.394Z,37.63
2018-12-01T22:53:46.627Z,40.20
2018-12-01T22:56:15.812Z,46.20
2018-12-01T22:58:44.895Z,52.40
2018-12-01T23:01:14.005Z,73.07
2018-12-01T23:03:43.634Z,66.80
2018-12-01T23:06:12.858Z,61.10
2018-12-01T23:08:42.202Z,60.40
2018-12-01T23:11:11.657Z,56.23
2018-12-01T23:13:40.747Z,51.70
2018-12-01T23:16:10.039Z,48.83
2018-12-01T23:18:39.384Z,49.13
2018-12-01T23:21:08.509Z,50.50
2018-12-01T23:23:37.757Z,47.60
2018-12-01T23:26:06.991Z,47.37
2018-12-01T23:28:36.203Z,47.90
2018-12-01T23:31:05.592Z,46.93
2018-12-01T23:33:34.358Z,45.90
2018-12-01T23:36:03.526Z,44.83
2018-12-01T23:38:32.651Z,41.83
2018-12-01T23:41:01.863Z,41.53
2018-12-01T23:43:30.872Z,45.97
2018-12-01T23:45:59.955Z,41.27
2018-12-01T23:48:29.066Z,46.80
2018-12-01T23:50:58.184Z,50.33
2018-12-01T23:53:27.323Z,52.40
2018-12-01T23:55:56.651Z,51.37
2018-12-01T23:58:25.839Z,50.70
